sensor_id;sensor_type;location;lat;lon;timestamp;P1;durP1;ratioP1;P2;durP2;ratioP2
67185;SDS011;54116;53.518;49.398;2022-09-27T00:01:11;2.72;;;1.20;;
67185;SDS011;54116;53.518;49.398;2022-09-27T00:03:44;5.43;;;1.60;;
67185;SDS011;54116;53.518;49.398;2022-09-27T00:06:12;4.75;;;1.33;;
67185;SDS011;54116;53.518;49.398;2022-09-27T00:08:50;3.25;;;1.23;;
67185;SDS011;54116;53.518;49.398;2022-09-27T00:13:58;3.05;;;1.48;;
67185;SDS011;54116;53.518;49.398;2022-09-27T00:16:25;4.63;;;1.38;;
67185;SDS011;54116;53.518;49.398;2022-09-27T00:18:57;3.38;;;1.17;;
67185;SDS011;54116;53.518;49.398;2022-09-27T00:21:31;4.28;;;1.40;;
67185;SDS011;54116;53.518;49.398;2022-09-27T00:24:01;3.47;;;1.27;;
67185;SDS011;54116;53.518;49.398;2022-09-27T00:26:32;3.40;;;1.25;;
67185;SDS011;54116;53.518;49.398;2022-09-27T00:28:59;3.17;;;1.30;;
67185;SDS011;54116;53.518;49.398;2022-09-27T00:31:29;2.90;;;1.02;;
67185;SDS011;54116;53.518;49.398;2022-09-27T00:33:58;2.72;;;1.20;;
67185;SDS011;54116;53.518;49.398;2022-09-27T00:36:29;4.38;;;1.27;;
67185;SDS011;54116;53.518;49.398;2022-09-27T00:38:58;2.65;;;1.35;;
67185;SDS011;54116;53.518;49.398;2022-09-27T00:41:34;4.68;;;1.45;;
67185;SDS011;54116;53.518;49.398;2022-09-27T00:47:02;2.88;;;1.20;;
67185;SDS011;54116;53.518;49.398;2022-09-27T00:49:55;5.40;;;1.58;;
67185;SDS011;54116;53.518;49.398;2022-09-27T00:53:14;5.13;;;1.20;;
67185;SDS011;54116;53.518;49.398;2022-09-27T00:55:32;3.63;;;1.20;;
67185;SDS011;54116;53.518;49.398;2022-09-27T00:58:08;4.22;;;1.63;;
67185;SDS011;54116;53.518;49.398;2022-09-27T01:03:13;6.03;;;1.20;;
67185;SDS011;54116;53.518;49.398;2022-09-27T01:05:45;3.80;;;1.30;;
67185;SDS011;54116;53.518;49.398;2022-09-27T01:08:15;3.40;;;1.17;;
67185;SDS011;54116;53.518;49.398;2022-09-27T01:10:49;3.63;;;1.23;;
67185;SDS011;54116;53.518;49.398;2022-09-27T01:13:29;3.67;;;1.42;;
67185;SDS011;54116;53.518;49.398;2022-09-27T01:16:11;3.78;;;1.33;;
67185;SDS011;54116;53.518;49.398;2022-09-27T01:22:29;4.32;;;1.25;;
67185;SDS011;54116;53.518;49.398;2022-09-27T01:31:11;3.92;;;1.20;;
67185;SDS011;54116;53.518;49.398;2022-09-27T01:34:03;5.47;;;1.45;;
67185;SDS011;54116;53.518;49.398;2022-09-27T01:47:38;3.38;;;1.50;;
67185;SDS011;54116;53.518;49.398;2022-09-27T01:50:08;3.92;;;1.52;;
67185;SDS011;54116;53.518;49.398;2022-09-27T01:55:17;4.53;;;1.63;;
67185;SDS011;54116;53.518;49.398;2022-09-27T01:57:49;4.57;;;1.58;;
67185;SDS011;54116;53.518;49.398;2022-09-27T02:00:37;3.25;;;1.40;;
67185;SDS011;54116;53.518;49.398;2022-09-27T02:03:12;4.38;;;1.60;;
67185;SDS011;54116;53.518;49.398;2022-09-27T02:05:51;3.53;;;1.60;;
67185;SDS011;54116;53.518;49.398;2022-09-27T02:08:38;4.10;;;1.50;;
67185;SDS011;54116;53.518;49.398;2022-09-27T02:11:12;4.38;;;1.42;;
67185;SDS011;54116;53.518;49.398;2022-09-27T02:13:44;4.07;;;1.45;;
67185;SDS011;54116;53.518;49.398;2022-09-27T02:21:44;3.70;;;1.50;;
67185;SDS011;54116;53.518;49.398;2022-09-27T02:24:36;4.15;;;1.50;;
67185;SDS011;54116;53.518;49.398;2022-09-27T02:27:20;3.92;;;1.50;;
67185;SDS011;54116;53.518;49.398;2022-09-27T02:29:56;4.60;;;1.70;;
67185;SDS011;54116;53.518;49.398;2022-09-27T02:32:32;4.50;;;1.73;;
67185;SDS011;54116;53.518;49.398;2022-09-27T02:35:00;4.03;;;1.67;;
67185;SDS011;54116;53.518;49.398;2022-09-27T02:37:31;7.63;;;1.63;;
67185;SDS011;54116;53.518;49.398;2022-09-27T02:40:02;4.03;;;1.63;;
67185;SDS011;54116;53.518;49.398;2022-09-27T02:42:31;5.15;;;1.40;;
67185;SDS011;54116;53.518;49.398;2022-09-27T02:45:00;3.03;;;1.30;;
67185;SDS011;54116;53.518;49.398;2022-09-27T02:55:37;4.40;;;1.60;;
67185;SDS011;54116;53.518;49.398;2022-09-27T03:01:06;6.50;;;1.67;;
67185;SDS011;54116;53.518;49.398;2022-09-27T03:03:59;7.65;;;1.60;;
67185;SDS011;54116;53.518;49.398;2022-09-27T03:09:27;4.05;;;1.80;;
67185;SDS011;54116;53.518;49.398;2022-09-27T03:12:06;5.43;;;1.60;;
67185;SDS011;54116;53.518;49.398;2022-09-27T03:14:32;5.68;;;1.65;;
67185;SDS011;54116;53.518;49.398;2022-09-27T03:16:58;6.35;;;1.40;;
67185;SDS011;54116;53.518;49.398;2022-09-27T03:19:25;4.95;;;1.70;;
67185;SDS011;54116;53.518;49.398;2022-09-27T03:21:54;5.78;;;1.85;;
67185;SDS011;54116;53.518;49.398;2022-09-27T03:24:21;4.60;;;1.58;;
67185;SDS011;54116;53.518;49.398;2022-09-27T03:26:47;5.55;;;1.45;;
67185;SDS011;54116;53.518;49.398;2022-09-27T03:29:15;5.75;;;2.00;;
67185;SDS011;54116;53.518;49.398;2022-09-27T03:31:51;4.18;;;1.55;;
67185;SDS011;54116;53.518;49.398;2022-09-27T03:34:18;5.15;;;1.58;;
67185;SDS011;54116;53.518;49.398;2022-09-27T03:36:44;4.95;;;2.08;;
67185;SDS011;54116;53.518;49.398;2022-09-27T03:39:12;5.25;;;2.20;;
67185;SDS011;54116;53.518;49.398;2022-09-27T03:41:47;4.90;;;1.88;;
67185;SDS011;54116;53.518;49.398;2022-09-27T03:44:13;4.63;;;1.95;;
67185;SDS011;54116;53.518;49.398;2022-09-27T03:46:40;8.07;;;2.28;;
67185;SDS011;54116;53.518;49.398;2022-09-27T03:49:07;4.93;;;2.00;;
67185;SDS011;54116;53.518;49.398;2022-09-27T03:51:34;5.70;;;2.33;;
67185;SDS011;54116;53.518;49.398;2022-09-27T03:54:01;7.25;;;2.47;;
67185;SDS011;54116;53.518;49.398;2022-09-27T03:56:30;10.65;;;2.72;;
67185;SDS011;54116;53.518;49.398;2022-09-27T03:59:09;8.63;;;2.25;;
67185;SDS011;54116;53.518;49.398;2022-09-27T04:01:42;6.10;;;2.33;;
67185;SDS011;54116;53.518;49.398;2022-09-27T04:04:11;4.72;;;2.13;;
67185;SDS011;54116;53.518;49.398;2022-09-27T04:06:38;7.15;;;2.22;;
67185;SDS011;54116;53.518;49.398;2022-09-27T04:09:05;7.50;;;2.50;;
67185;SDS011;54116;53.518;49.398;2022-09-27T04:11:33;4.68;;;2.03;;
67185;SDS011;54116;53.518;49.398;2022-09-27T04:14:00;4.88;;;2.13;;
67185;SDS011;54116;53.518;49.398;2022-09-27T04:16:36;5.68;;;1.90;;
67185;SDS011;54116;53.518;49.398;2022-09-27T04:19:05;6.18;;;1.92;;
67185;SDS011;54116;53.518;49.398;2022-09-27T04:21:34;5.85;;;1.88;;
67185;SDS011;54116;53.518;49.398;2022-09-27T04:24:13;5.45;;;1.75;;
67185;SDS011;54116;53.518;49.398;2022-09-27T04:26:43;4.97;;;2.10;;
67185;SDS011;54116;53.518;49.398;2022-09-27T04:29:10;6.40;;;2.10;;
67185;SDS011;54116;53.518;49.398;2022-09-27T04:31:38;4.78;;;2.17;;
67185;SDS011;54116;53.518;49.398;2022-09-27T04:34:09;4.47;;;2.10;;
67185;SDS011;54116;53.518;49.398;2022-09-27T04:36:38;6.35;;;2.05;;
67185;SDS011;54116;53.518;49.398;2022-09-27T04:39:05;4.13;;;1.98;;
67185;SDS011;54116;53.518;49.398;2022-09-27T04:41:33;6.75;;;2.30;;
67185;SDS011;54116;53.518;49.398;2022-09-27T04:44:03;7.00;;;2.08;;
67185;SDS011;54116;53.518;49.398;2022-09-27T04:46:35;5.45;;;2.70;;
67185;SDS011;54116;53.518;49.398;2022-09-27T04:49:04;6.25;;;2.15;;
67185;SDS011;54116;53.518;49.398;2022-09-27T04:51:37;7.72;;;2.10;;
67185;SDS011;54116;53.518;49.398;2022-09-27T04:54:05;5.60;;;2.30;;
67185;SDS011;54116;53.518;49.398;2022-09-27T04:56:32;7.68;;;2.65;;
67185;SDS011;54116;53.518;49.398;2022-09-27T04:59:02;7.35;;;2.50;;
67185;SDS011;54116;53.518;49.398;2022-09-27T05:01:32;7.18;;;2.65;;
67185;SDS011;54116;53.518;49.398;2022-09-27T05:04:00;5.63;;;2.47;;
67185;SDS011;54116;53.518;49.398;2022-09-27T05:06:28;7.20;;;2.88;;
67185;SDS011;54116;53.518;49.398;2022-09-27T05:09:03;5.97;;;2.63;;
67185;SDS011;54116;53.518;49.398;2022-09-27T05:11:31;9.05;;;2.53;;
67185;SDS011;54116;53.518;49.398;2022-09-27T05:14:00;6.97;;;2.80;;
67185;SDS011;54116;53.518;49.398;2022-09-27T05:16:27;6.57;;;2.75;;
67185;SDS011;54116;53.518;49.398;2022-09-27T05:18:55;7.30;;;3.22;;
67185;SDS011;54116;53.518;49.398;2022-09-27T05:21:29;7.10;;;2.90;;
67185;SDS011;54116;53.518;49.398;2022-09-27T05:23:58;5.88;;;2.92;;
67185;SDS011;54116;53.518;49.398;2022-09-27T05:26:27;7.07;;;3.08;;
67185;SDS011;54116;53.518;49.398;2022-09-27T05:28:53;7.63;;;3.10;;
67185;SDS011;54116;53.518;49.398;2022-09-27T05:31:21;7.13;;;3.38;;
67185;SDS011;54116;53.518;49.398;2022-09-27T05:33:55;8.25;;;3.10;;
67185;SDS011;54116;53.518;49.398;2022-09-27T05:36:23;8.63;;;3.08;;
67185;SDS011;54116;53.518;49.398;2022-09-27T05:38:51;6.00;;;3.03;;
67185;SDS011;54116;53.518;49.398;2022-09-27T05:41:18;6.97;;;2.63;;
67185;SDS011;54116;53.518;49.398;2022-09-27T05:43:47;7.28;;;3.08;;
67185;SDS011;54116;53.518;49.398;2022-09-27T05:46:14;7.03;;;2.70;;
67185;SDS011;54116;53.518;49.398;2022-09-27T05:48:42;5.90;;;2.92;;
67185;SDS011;54116;53.518;49.398;2022-09-27T05:51:08;8.95;;;3.20;;
67185;SDS011;54116;53.518;49.398;2022-09-27T05:53:42;7.22;;;3.10;;
67185;SDS011;54116;53.518;49.398;2022-09-27T05:56:14;5.68;;;2.85;;
67185;SDS011;54116;53.518;49.398;2022-09-27T05:58:43;7.10;;;2.97;;
67185;SDS011;54116;53.518;49.398;2022-09-27T06:01:09;7.03;;;3.28;;
67185;SDS011;54116;53.518;49.398;2022-09-27T06:03:36;8.18;;;3.30;;
67185;SDS011;54116;53.518;49.398;2022-09-27T06:06:03;6.45;;;3.25;;
67185;SDS011;54116;53.518;49.398;2022-09-27T06:08:36;7.10;;;3.47;;
67185;SDS011;54116;53.518;49.398;2022-09-27T06:11:06;5.90;;;2.80;;
67185;SDS011;54116;53.518;49.398;2022-09-27T06:13:36;5.82;;;2.72;;
67185;SDS011;54116;53.518;49.398;2022-09-27T06:16:05;6.30;;;2.33;;
67185;SDS011;54116;53.518;49.398;2022-09-27T06:18:34;6.28;;;2.63;;
67185;SDS011;54116;53.518;49.398;2022-09-27T06:21:03;5.60;;;2.47;;
67185;SDS011;54116;53.518;49.398;2022-09-27T06:23:43;6.95;;;3.08;;
67185;SDS011;54116;53.518;49.398;2022-09-27T06:26:11;5.57;;;2.55;;
67185;SDS011;54116;53.518;49.398;2022-09-27T06:28:40;7.93;;;2.53;;
67185;SDS011;54116;53.518;49.398;2022-09-27T06:31:07;6.60;;;2.38;;
67185;SDS011;54116;53.518;49.398;2022-09-27T06:33:34;6.72;;;2.22;;
67185;SDS011;54116;53.518;49.398;2022-09-27T06:36:06;5.43;;;2.20;;
67185;SDS011;54116;53.518;49.398;2022-09-27T06:38:41;6.20;;;2.25;;
67185;SDS011;54116;53.518;49.398;2022-09-27T06:41:14;5.75;;;2.00;;
67185;SDS011;54116;53.518;49.398;2022-09-27T06:43:44;5.40;;;2.28;;
67185;SDS011;54116;53.518;49.398;2022-09-27T06:46:18;5.10;;;1.88;;
67185;SDS011;54116;53.518;49.398;2022-09-27T06:48:51;4.40;;;1.98;;
67185;SDS011;54116;53.518;49.398;2022-09-27T06:51:20;4.72;;;2.15;;
67185;SDS011;54116;53.518;49.398;2022-09-27T06:53:51;7.10;;;2.22;;
67185;SDS011;54116;53.518;49.398;2022-09-27T06:56:22;5.13;;;1.85;;
67185;SDS011;54116;53.518;49.398;2022-09-27T06:58:52;4.20;;;2.10;;
67185;SDS011;54116;53.518;49.398;2022-09-27T07:01:39;4.35;;;1.75;;
67185;SDS011;54116;53.518;49.398;2022-09-27T07:04:05;5.35;;;2.13;;
67185;SDS011;54116;53.518;49.398;2022-09-27T07:06:32;5.25;;;2.00;;
67185;SDS011;54116;53.518;49.398;2022-09-27T07:08:59;5.95;;;1.90;;
67185;SDS011;54116;53.518;49.398;2022-09-27T07:11:26;4.85;;;2.20;;
67185;SDS011;54116;53.518;49.398;2022-09-27T07:13:57;4.38;;;2.20;;
67185;SDS011;54116;53.518;49.398;2022-09-27T07:16:30;4.55;;;1.80;;
67185;SDS011;54116;53.518;49.398;2022-09-27T07:18:59;5.13;;;2.03;;
67185;SDS011;54116;53.518;49.398;2022-09-27T07:21:32;4.50;;;1.60;;
67185;SDS011;54116;53.518;49.398;2022-09-27T07:24:00;5.35;;;1.83;;
67185;SDS011;54116;53.518;49.398;2022-09-27T07:26:27;4.97;;;1.98;;
67185;SDS011;54116;53.518;49.398;2022-09-27T07:28:54;3.42;;;1.58;;
67185;SDS011;54116;53.518;49.398;2022-09-27T07:31:21;2.65;;;1.20;;
67185;SDS011;54116;53.518;49.398;2022-09-27T07:33:50;5.05;;;2.20;;
67185;SDS011;54116;53.518;49.398;2022-09-27T07:36:17;3.75;;;1.50;;
67185;SDS011;54116;53.518;49.398;2022-09-27T07:38:46;4.88;;;2.13;;
67185;SDS011;54116;53.518;49.398;2022-09-27T07:41:15;5.22;;;2.20;;
67185;SDS011;54116;53.518;49.398;2022-09-27T07:43:48;4.53;;;1.95;;
67185;SDS011;54116;53.518;49.398;2022-09-27T07:46:19;7.85;;;1.98;;
67185;SDS011;54116;53.518;49.398;2022-09-27T07:48:51;5.60;;;2.30;;
67185;SDS011;54116;53.518;49.398;2022-09-27T07:51:20;6.53;;;2.30;;
67185;SDS011;54116;53.518;49.398;2022-09-27T07:53:49;5.97;;;1.85;;
67185;SDS011;54116;53.518;49.398;2022-09-27T07:56:17;4.45;;;1.70;;
67185;SDS011;54116;53.518;49.398;2022-09-27T07:58:43;4.88;;;1.73;;
67185;SDS011;54116;53.518;49.398;2022-09-27T08:01:11;4.93;;;1.60;;
67185;SDS011;54116;53.518;49.398;2022-09-27T08:03:39;4.88;;;1.60;;
67185;SDS011;54116;53.518;49.398;2022-09-27T08:06:20;4.10;;;1.60;;
67185;SDS011;54116;53.518;49.398;2022-09-27T08:08:55;5.07;;;2.10;;
67185;SDS011;54116;53.518;49.398;2022-09-27T08:11:29;4.85;;;1.73;;
67185;SDS011;54116;53.518;49.398;2022-09-27T08:14:04;3.42;;;1.45;;
67185;SDS011;54116;53.518;49.398;2022-09-27T08:16:33;4.55;;;2.08;;
67185;SDS011;54116;53.518;49.398;2022-09-27T08:19:05;4.82;;;1.60;;
67185;SDS011;54116;53.518;49.398;2022-09-27T08:21:33;4.68;;;1.60;;
67185;SDS011;54116;53.518;49.398;2022-09-27T08:24:01;2.95;;;1.45;;
67185;SDS011;54116;53.518;49.398;2022-09-27T08:26:28;4.40;;;1.30;;
67185;SDS011;54116;53.518;49.398;2022-09-27T08:28:58;3.67;;;1.50;;
67185;SDS011;54116;53.518;49.398;2022-09-27T08:31:24;3.40;;;1.88;;
67185;SDS011;54116;53.518;49.398;2022-09-27T08:33:59;4.93;;;1.40;;
67185;SDS011;54116;53.518;49.398;2022-09-27T08:36:26;3.20;;;1.55;;
67185;SDS011;54116;53.518;49.398;2022-09-27T08:39:00;3.20;;;1.38;;
67185;SDS011;54116;53.518;49.398;2022-09-27T08:44:09;3.03;;;1.40;;
67185;SDS011;54116;53.518;49.398;2022-09-27T08:46:57;3.28;;;1.30;;
67185;SDS011;54116;53.518;49.398;2022-09-27T08:49:56;3.47;;;1.40;;
67185;SDS011;54116;53.518;49.398;2022-09-27T08:52:37;3.92;;;1.35;;
67185;SDS011;54116;53.518;49.398;2022-09-27T09:00:52;5.38;;;1.65;;
67185;SDS011;54116;53.518;49.398;2022-09-27T09:03:32;4.55;;;1.60;;
67185;SDS011;54116;53.518;49.398;2022-09-27T09:06:12;2.95;;;1.23;;
67185;SDS011;54116;53.518;49.398;2022-09-27T09:11:48;2.70;;;1.20;;
67185;SDS011;54116;53.518;49.398;2022-09-27T09:26:24;3.72;;;1.60;;
67185;SDS011;54116;53.518;49.398;2022-09-27T09:29:01;3.03;;;1.25;;
67185;SDS011;54116;53.518;49.398;2022-09-27T09:31:41;3.67;;;1.23;;
67185;SDS011;54116;53.518;49.398;2022-09-27T09:34:39;3.03;;;1.33;;
67185;SDS011;54116;53.518;49.398;2022-09-27T09:39:49;2.67;;;1.40;;
67185;SDS011;54116;53.518;49.398;2022-09-27T09:45:23;4.53;;;1.63;;
67185;SDS011;54116;53.518;49.398;2022-09-27T09:48:03;4.03;;;1.30;;
67185;SDS011;54116;53.518;49.398;2022-09-27T09:50:44;5.13;;;2.17;;
67185;SDS011;54116;53.518;49.398;2022-09-27T09:53:16;3.25;;;1.33;;
67185;SDS011;54116;53.518;49.398;2022-09-27T09:55:55;2.97;;;1.52;;
67185;SDS011;54116;53.518;49.398;2022-09-27T09:58:54;3.38;;;1.33;;
67185;SDS011;54116;53.518;49.398;2022-09-27T10:01:29;3.35;;;1.15;;
67185;SDS011;54116;53.518;49.398;2022-09-27T10:04:00;3.60;;;1.50;;
67185;SDS011;54116;53.518;49.398;2022-09-27T10:06:31;3.88;;;1.60;;
67185;SDS011;54116;53.518;49.398;2022-09-27T10:09:02;3.90;;;1.17;;
67185;SDS011;54116;53.518;49.398;2022-09-27T10:11:40;2.22;;;1.05;;
67185;SDS011;54116;53.518;49.398;2022-09-27T10:14:15;3.83;;;1.55;;
67185;SDS011;54116;53.518;49.398;2022-09-27T10:16:49;5.10;;;1.25;;
67185;SDS011;54116;53.518;49.398;2022-09-27T10:19:30;3.38;;;1.48;;
67185;SDS011;54116;53.518;49.398;2022-09-27T10:22:00;2.92;;;1.60;;
67185;SDS011;54116;53.518;49.398;2022-09-27T10:25:01;3.70;;;1.63;;
67185;SDS011;54116;53.518;49.398;2022-09-27T10:27:40;4.07;;;1.42;;
67185;SDS011;54116;53.518;49.398;2022-09-27T10:30:22;3.38;;;1.40;;
67185;SDS011;54116;53.518;49.398;2022-09-27T10:32:58;2.83;;;1.42;;
67185;SDS011;54116;53.518;49.398;2022-09-27T10:35:33;3.25;;;1.08;;
67185;SDS011;54116;53.518;49.398;2022-09-27T10:38:24;2.95;;;1.20;;
67185;SDS011;54116;53.518;49.398;2022-09-27T10:41:21;4.18;;;1.48;;
67185;SDS011;54116;53.518;49.398;2022-09-27T10:46:48;2.70;;;1.25;;
67185;SDS011;54116;53.518;49.398;2022-09-27T10:52:04;2.55;;;1.17;;
67185;SDS011;54116;53.518;49.398;2022-09-27T10:54:51;2.72;;;1.15;;
67185;SDS011;54116;53.518;49.398;2022-09-27T10:57:24;3.08;;;1.40;;
67185;SDS011;54116;53.518;49.398;2022-09-27T10:59:59;6.13;;;1.50;;
67185;SDS011;54116;53.518;49.398;2022-09-27T11:02:34;1.70;;;0.82;;
67185;SDS011;54116;53.518;49.398;2022-09-27T11:05:14;2.30;;;1.00;;
67185;SDS011;54116;53.518;49.398;2022-09-27T11:08:24;2.55;;;1.02;;
67185;SDS011;54116;53.518;49.398;2022-09-27T11:13:36;1.75;;;0.80;;
67185;SDS011;54116;53.518;49.398;2022-09-27T11:16:19;2.80;;;0.93;;
67185;SDS011;54116;53.518;49.398;2022-09-27T11:22:15;2.63;;;1.10;;
67185;SDS011;54116;53.518;49.398;2022-09-27T11:25:19;3.42;;;0.98;;
67185;SDS011;54116;53.518;49.398;2022-09-27T11:30:58;2.67;;;1.00;;
67185;SDS011;54116;53.518;49.398;2022-09-27T11:51:06;3.20;;;1.05;;
67185;SDS011;54116;53.518;49.398;2022-09-27T11:59:32;2.55;;;1.13;;
67185;SDS011;54116;53.518;49.398;2022-09-27T12:02:38;3.83;;;1.20;;
67185;SDS011;54116;53.518;49.398;2022-09-27T12:05:30;1.95;;;1.02;;
67185;SDS011;54116;53.518;49.398;2022-09-27T12:10:57;2.38;;;1.00;;
67185;SDS011;54116;53.518;49.398;2022-09-27T12:13:41;2.38;;;1.25;;
67185;SDS011;54116;53.518;49.398;2022-09-27T12:16:14;2.00;;;0.82;;
67185;SDS011;54116;53.518;49.398;2022-09-27T12:18:43;3.72;;;1.20;;
67185;SDS011;54116;53.518;49.398;2022-09-27T12:21:12;4.43;;;1.30;;
67185;SDS011;54116;53.518;49.398;2022-09-27T12:23:46;3.00;;;1.30;;
67185;SDS011;54116;53.518;49.398;2022-09-27T12:26:25;2.58;;;1.20;;
67185;SDS011;54116;53.518;49.398;2022-09-27T12:28:59;7.10;;;1.60;;
67185;SDS011;54116;53.518;49.398;2022-09-27T12:37:20;1.70;;;0.90;;
67185;SDS011;54116;53.518;49.398;2022-09-27T12:40:02;4.65;;;1.13;;
67185;SDS011;54116;53.518;49.398;2022-09-27T12:45:10;2.08;;;1.08;;
67185;SDS011;54116;53.518;49.398;2022-09-27T12:53:12;3.75;;;1.10;;
67185;SDS011;54116;53.518;49.398;2022-09-27T12:58:36;3.38;;;1.20;;
67185;SDS011;54116;53.518;49.398;2022-09-27T13:01:30;5.88;;;1.23;;
67185;SDS011;54116;53.518;49.398;2022-09-27T13:04:21;2.70;;;1.20;;
67185;SDS011;54116;53.518;49.398;2022-09-27T13:12:59;4.88;;;1.70;;
67185;SDS011;54116;53.518;49.398;2022-09-27T13:15:32;6.78;;;1.33;;
67185;SDS011;54116;53.518;49.398;2022-09-27T13:18:02;4.82;;;1.45;;
67185;SDS011;54116;53.518;49.398;2022-09-27T13:20:41;4.07;;;1.23;;
67185;SDS011;54116;53.518;49.398;2022-09-27T13:25:58;5.07;;;1.65;;
67185;SDS011;54116;53.518;49.398;2022-09-27T13:33:41;4.45;;;1.48;;
67185;SDS011;54116;53.518;49.398;2022-09-27T13:36:29;6.93;;;1.25;;
67185;SDS011;54116;53.518;49.398;2022-09-27T13:47:34;8.40;;;1.35;;
67185;SDS011;54116;53.518;49.398;2022-09-27T13:50:16;7.25;;;1.45;;
67185;SDS011;54116;53.518;49.398;2022-09-27T13:53:11;6.28;;;1.48;;
67185;SDS011;54116;53.518;49.398;2022-09-27T13:55:50;9.45;;;1.70;;
67185;SDS011;54116;53.518;49.398;2022-09-27T14:01:19;4.70;;;1.40;;
67185;SDS011;54116;53.518;49.398;2022-09-27T14:06:47;5.57;;;1.38;;
67185;SDS011;54116;53.518;49.398;2022-09-27T14:09:33;8.65;;;1.70;;
67185;SDS011;54116;53.518;49.398;2022-09-27T14:12:11;6.57;;;1.60;;
67185;SDS011;54116;53.518;49.398;2022-09-27T14:14:55;8.65;;;1.42;;
67185;SDS011;54116;53.518;49.398;2022-09-27T14:19:57;9.48;;;2.80;;
67185;SDS011;54116;53.518;49.398;2022-09-27T14:22:25;6.20;;;1.38;;
67185;SDS011;54116;53.518;49.398;2022-09-27T14:24:54;7.13;;;2.00;;
67185;SDS011;54116;53.518;49.398;2022-09-27T14:27:27;5.88;;;1.60;;
67185;SDS011;54116;53.518;49.398;2022-09-27T14:29:57;8.73;;;1.65;;
67185;SDS011;54116;53.518;49.398;2022-09-27T14:32:44;7.50;;;1.70;;
67185;SDS011;54116;53.518;49.398;2022-09-27T14:38:05;9.68;;;1.58;;
67185;SDS011;54116;53.518;49.398;2022-09-27T14:40:37;8.88;;;2.00;;
67185;SDS011;54116;53.518;49.398;2022-09-27T14:43:29;10.25;;;2.35;;
67185;SDS011;54116;53.518;49.398;2022-09-27T14:46:04;6.30;;;1.92;;
67185;SDS011;54116;53.518;49.398;2022-09-27T14:48:52;6.55;;;2.20;;
67185;SDS011;54116;53.518;49.398;2022-09-27T14:51:28;8.30;;;2.17;;
67185;SDS011;54116;53.518;49.398;2022-09-27T14:54:03;9.27;;;1.90;;
67185;SDS011;54116;53.518;49.398;2022-09-27T14:56:36;10.35;;;2.22;;
67185;SDS011;54116;53.518;49.398;2022-09-27T14:59:16;10.35;;;3.15;;
67185;SDS011;54116;53.518;49.398;2022-09-27T15:01:59;10.50;;;2.80;;
67185;SDS011;54116;53.518;49.398;2022-09-27T15:04:41;8.70;;;2.97;;
67185;SDS011;54116;53.518;49.398;2022-09-27T15:07:15;12.75;;;3.28;;
67185;SDS011;54116;53.518;49.398;2022-09-27T15:09:49;13.50;;;3.72;;
67185;SDS011;54116;53.518;49.398;2022-09-27T15:12:25;10.90;;;3.45;;
67185;SDS011;54116;53.518;49.398;2022-09-27T15:14:52;8.52;;;3.45;;
67185;SDS011;54116;53.518;49.398;2022-09-27T15:17:23;7.40;;;2.83;;
67185;SDS011;54116;53.518;49.398;2022-09-27T15:20:16;9.57;;;2.50;;
67185;SDS011;54116;53.518;49.398;2022-09-27T15:22:49;10.13;;;2.70;;
67185;SDS011;54116;53.518;49.398;2022-09-27T15:25:20;12.27;;;3.17;;
67185;SDS011;54116;53.518;49.398;2022-09-27T15:28:15;9.23;;;2.72;;
67185;SDS011;54116;53.518;49.398;2022-09-27T15:30:51;10.80;;;3.50;;
67185;SDS011;54116;53.518;49.398;2022-09-27T15:33:27;15.45;;;3.45;;
67185;SDS011;54116;53.518;49.398;2022-09-27T15:36:06;12.35;;;3.58;;
67185;SDS011;54116;53.518;49.398;2022-09-27T15:38:44;14.75;;;3.80;;
67185;SDS011;54116;53.518;49.398;2022-09-27T15:42:09;10.30;;;2.83;;
67185;SDS011;54116;53.518;49.398;2022-09-27T15:44:49;11.50;;;2.88;;
67185;SDS011;54116;53.518;49.398;2022-09-27T15:52:56;12.57;;;3.97;;
67185;SDS011;54116;53.518;49.398;2022-09-27T15:55:27;10.50;;;3.22;;
67185;SDS011;54116;53.518;49.398;2022-09-27T15:58:09;10.45;;;2.70;;
67185;SDS011;54116;53.518;49.398;2022-09-27T16:00:50;10.88;;;3.13;;
67185;SDS011;54116;53.518;49.398;2022-09-27T16:03:23;14.30;;;3.35;;
67185;SDS011;54116;53.518;49.398;2022-09-27T16:06:03;10.27;;;2.90;;
67185;SDS011;54116;53.518;49.398;2022-09-27T16:11:04;11.02;;;3.33;;
67185;SDS011;54116;53.518;49.398;2022-09-27T16:13:30;11.32;;;3.00;;
67185;SDS011;54116;53.518;49.398;2022-09-27T16:16:00;8.02;;;3.08;;
67185;SDS011;54116;53.518;49.398;2022-09-27T16:18:38;11.50;;;2.97;;
67185;SDS011;54116;53.518;49.398;2022-09-27T16:21:05;14.57;;;3.60;;
67185;SDS011;54116;53.518;49.398;2022-09-27T16:23:44;10.60;;;3.25;;
67185;SDS011;54116;53.518;49.398;2022-09-27T16:26:13;13.27;;;3.50;;
67185;SDS011;54116;53.518;49.398;2022-09-27T16:28:39;14.40;;;3.78;;
67185;SDS011;54116;53.518;49.398;2022-09-27T16:31:09;11.68;;;3.83;;
67185;SDS011;54116;53.518;49.398;2022-09-27T16:33:42;15.23;;;3.78;;
67185;SDS011;54116;53.518;49.398;2022-09-27T16:36:12;17.45;;;3.92;;
67185;SDS011;54116;53.518;49.398;2022-09-27T16:38:49;13.70;;;3.55;;
67185;SDS011;54116;53.518;49.398;2022-09-27T16:41:19;12.23;;;3.03;;
67185;SDS011;54116;53.518;49.398;2022-09-27T16:43:47;9.13;;;3.38;;
67185;SDS011;54116;53.518;49.398;2022-09-27T16:46:15;8.70;;;2.97;;
67185;SDS011;54116;53.518;49.398;2022-09-27T16:48:45;10.82;;;3.28;;
67185;SDS011;54116;53.518;49.398;2022-09-27T16:51:16;11.60;;;3.15;;
67185;SDS011;54116;53.518;49.398;2022-09-27T16:54:05;11.18;;;3.05;;
67185;SDS011;54116;53.518;49.398;2022-09-27T16:56:42;9.80;;;3.22;;
67185;SDS011;54116;53.518;49.398;2022-09-27T16:59:12;10.77;;;2.88;;
67185;SDS011;54116;53.518;49.398;2022-09-27T17:01:38;11.63;;;3.55;;
67185;SDS011;54116;53.518;49.398;2022-09-27T17:04:06;14.10;;;3.45;;
67185;SDS011;54116;53.518;49.398;2022-09-27T17:06:34;9.93;;;3.28;;
67185;SDS011;54116;53.518;49.398;2022-09-27T17:09:04;19.67;;;3.88;;
67185;SDS011;54116;53.518;49.398;2022-09-27T17:11:35;13.07;;;3.60;;
67185;SDS011;54116;53.518;49.398;2022-09-27T17:14:16;12.90;;;3.53;;
67185;SDS011;54116;53.518;49.398;2022-09-27T17:16:45;11.38;;;3.60;;
67185;SDS011;54116;53.518;49.398;2022-09-27T17:19:13;11.73;;;3.33;;
67185;SDS011;54116;53.518;49.398;2022-09-27T17:21:40;9.95;;;3.00;;
67185;SDS011;54116;53.518;49.398;2022-09-27T17:24:09;13.80;;;3.78;;
67185;SDS011;54116;53.518;49.398;2022-09-27T17:26:37;9.85;;;3.55;;
67185;SDS011;54116;53.518;49.398;2022-09-27T17:29:06;17.88;;;3.90;;
67185;SDS011;54116;53.518;49.398;2022-09-27T17:31:44;10.63;;;3.50;;
67185;SDS011;54116;53.518;49.398;2022-09-27T17:34:11;11.40;;;3.58;;
67185;SDS011;54116;53.518;49.398;2022-09-27T17:36:46;9.85;;;3.50;;
67185;SDS011;54116;53.518;49.398;2022-09-27T17:39:19;7.57;;;2.90;;
67185;SDS011;54116;53.518;49.398;2022-09-27T17:41:47;8.00;;;3.05;;
67185;SDS011;54116;53.518;49.398;2022-09-27T17:44:16;8.48;;;2.90;;
67185;SDS011;54116;53.518;49.398;2022-09-27T17:46:46;6.38;;;2.58;;
67185;SDS011;54116;53.518;49.398;2022-09-27T17:49:33;6.07;;;2.72;;
67185;SDS011;54116;53.518;49.398;2022-09-27T17:52:20;6.57;;;2.58;;
67185;SDS011;54116;53.518;49.398;2022-09-27T17:54:51;6.53;;;2.47;;
67185;SDS011;54116;53.518;49.398;2022-09-27T17:57:25;8.73;;;2.40;;
67185;SDS011;54116;53.518;49.398;2022-09-27T17:59:51;7.28;;;2.08;;
67185;SDS011;54116;53.518;49.398;2022-09-27T18:02:20;8.27;;;2.33;;
67185;SDS011;54116;53.518;49.398;2022-09-27T18:04:48;5.93;;;2.30;;
67185;SDS011;54116;53.518;49.398;2022-09-27T18:07:15;4.88;;;2.05;;
67185;SDS011;54116;53.518;49.398;2022-09-27T18:09:43;6.28;;;2.20;;
67185;SDS011;54116;53.518;49.398;2022-09-27T18:12:11;6.00;;;2.42;;